sensor_id;sensor_type;location;lat;lon;timestamp;P1;durP1;ratioP1;P2;durP2;ratioP2
21430;SDS011;10876;49.038;10.608;2023-03-31T00:01:19;1.27;;;1.17;;
21430;SDS011;10876;49.038;10.608;2023-03-31T00:03:45;1.90;;;1.40;;
21430;SDS011;10876;49.038;10.608;2023-03-31T00:06:12;1.42;;;1.33;;
21430;SDS011;10876;49.038;10.608;2023-03-31T00:08:43;1.60;;;1.20;;
21430;SDS011;10876;49.038;10.608;2023-03-31T00:11:15;1.67;;;1.27;;
21430;SDS011;10876;49.038;10.608;2023-03-31T00:13:42;1.70;;;0.95;;
21430;SDS011;10876;49.038;10.608;2023-03-31T00:16:10;1.40;;;1.30;;
21430;SDS011;10876;49.038;10.608;2023-03-31T00:18:37;5.63;;;1.42;;
21430;SDS011;10876;49.038;10.608;2023-03-31T01:08:57;4.47;;;1.80;;
21430;SDS011;10876;49.038;10.608;2023-03-31T01:11:30;3.53;;;1.50;;
21430;SDS011;10876;49.038;10.608;2023-03-31T01:14:00;2.53;;;1.58;;
21430;SDS011;10876;49.038;10.608;2023-03-31T01:16:28;3.30;;;1.60;;
21430;SDS011;10876;49.038;10.608;2023-03-31T01:18:55;2.72;;;1.70;;
21430;SDS011;10876;49.038;10.608;2023-03-31T01:21:38;2.75;;;2.13;;
21430;SDS011;10876;49.038;10.608;2023-03-31T01:24:33;2.83;;;2.30;;
21430;SDS011;10876;49.038;10.608;2023-03-31T01:27:35;3.00;;;2.13;;
21430;SDS011;10876;49.038;10.608;2023-03-31T01:30:25;4.63;;;2.60;;
21430;SDS011;10876;49.038;10.608;2023-03-31T01:33:22;5.18;;;2.75;;
21430;SDS011;10876;49.038;10.608;2023-03-31T01:42:35;7.28;;;2.72;;
21430;SDS011;10876;49.038;10.608;2023-03-31T01:45:09;4.78;;;2.53;;
21430;SDS011;10876;49.038;10.608;2023-03-31T01:47:44;3.88;;;2.78;;
21430;SDS011;10876;49.038;10.608;2023-03-31T01:50:17;4.20;;;2.72;;
21430;SDS011;10876;49.038;10.608;2023-03-31T01:52:53;3.13;;;2.53;;
21430;SDS011;10876;49.038;10.608;2023-03-31T01:55:29;5.65;;;3.08;;
21430;SDS011;10876;49.038;10.608;2023-03-31T01:58:02;4.57;;;3.05;;
21430;SDS011;10876;49.038;10.608;2023-03-31T02:00:34;6.57;;;3.20;;
21430;SDS011;10876;49.038;10.608;2023-03-31T02:03:07;6.60;;;2.83;;
21430;SDS011;10876;49.038;10.608;2023-03-31T02:05:42;5.55;;;3.15;;
21430;SDS011;10876;49.038;10.608;2023-03-31T02:08:15;6.90;;;3.20;;
21430;SDS011;10876;49.038;10.608;2023-03-31T02:10:48;8.30;;;3.38;;
21430;SDS011;10876;49.038;10.608;2023-03-31T02:13:18;9.68;;;3.38;;
21430;SDS011;10876;49.038;10.608;2023-03-31T02:15:50;8.63;;;3.90;;
21430;SDS011;10876;49.038;10.608;2023-03-31T02:18:20;11.25;;;4.05;;
21430;SDS011;10876;49.038;10.608;2023-03-31T02:20:51;5.97;;;3.30;;
21430;SDS011;10876;49.038;10.608;2023-03-31T02:23:23;7.82;;;3.90;;
21430;SDS011;10876;49.038;10.608;2023-03-31T02:25:56;8.05;;;3.78;;
21430;SDS011;10876;49.038;10.608;2023-03-31T02:28:28;6.15;;;3.80;;
21430;SDS011;10876;49.038;10.608;2023-03-31T02:30:58;8.93;;;3.85;;
21430;SDS011;10876;49.038;10.608;2023-03-31T02:33:33;6.35;;;3.78;;
21430;SDS011;10876;49.038;10.608;2023-03-31T02:36:01;7.30;;;3.70;;
21430;SDS011;10876;49.038;10.608;2023-03-31T02:38:29;6.70;;;3.25;;
21430;SDS011;10876;49.038;10.608;2023-03-31T02:41:00;5.60;;;3.03;;
21430;SDS011;10876;49.038;10.608;2023-03-31T02:43:27;8.13;;;3.92;;
21430;SDS011;10876;49.038;10.608;2023-03-31T02:45:54;8.60;;;3.38;;
21430;SDS011;10876;49.038;10.608;2023-03-31T02:48:22;8.00;;;3.10;;
21430;SDS011;10876;49.038;10.608;2023-03-31T02:51:00;7.95;;;3.47;;
21430;SDS011;10876;49.038;10.608;2023-03-31T02:53:54;5.05;;;2.97;;
21430;SDS011;10876;49.038;10.608;2023-03-31T02:56:37;5.57;;;3.30;;
21430;SDS011;10876;49.038;10.608;2023-03-31T02:59:15;7.53;;;3.25;;
21430;SDS011;10876;49.038;10.608;2023-03-31T03:02:01;6.78;;;2.97;;
21430;SDS011;10876;49.038;10.608;2023-03-31T03:04:43;5.50;;;3.08;;
21430;SDS011;10876;49.038;10.608;2023-03-31T03:07:21;6.72;;;3.30;;
21430;SDS011;10876;49.038;10.608;2023-03-31T03:09:57;6.50;;;3.20;;
21430;SDS011;10876;49.038;10.608;2023-03-31T03:12:32;4.57;;;3.00;;
21430;SDS011;10876;49.038;10.608;2023-03-31T03:15:07;4.40;;;2.67;;
21430;SDS011;10876;49.038;10.608;2023-03-31T03:17:38;5.50;;;3.20;;
21430;SDS011;10876;49.038;10.608;2023-03-31T03:20:08;5.90;;;3.10;;
21430;SDS011;10876;49.038;10.608;2023-03-31T03:22:36;5.50;;;3.42;;
21430;SDS011;10876;49.038;10.608;2023-03-31T03:25:05;6.72;;;3.40;;
21430;SDS011;10876;49.038;10.608;2023-03-31T03:27:36;6.55;;;3.22;;
21430;SDS011;10876;49.038;10.608;2023-03-31T03:30:04;6.10;;;3.25;;
21430;SDS011;10876;49.038;10.608;2023-03-31T03:32:34;5.47;;;2.67;;
21430;SDS011;10876;49.038;10.608;2023-03-31T03:35:01;5.25;;;3.28;;
21430;SDS011;10876;49.038;10.608;2023-03-31T03:37:29;6.95;;;2.90;;
21430;SDS011;10876;49.038;10.608;2023-03-31T03:39:56;7.82;;;3.17;;
21430;SDS011;10876;49.038;10.608;2023-03-31T03:42:23;5.75;;;2.83;;
21430;SDS011;10876;49.038;10.608;2023-03-31T03:44:52;5.50;;;2.75;;
21430;SDS011;10876;49.038;10.608;2023-03-31T03:47:18;5.07;;;2.70;;
21430;SDS011;10876;49.038;10.608;2023-03-31T03:49:45;9.95;;;3.22;;
21430;SDS011;10876;49.038;10.608;2023-03-31T03:52:13;6.75;;;2.97;;
21430;SDS011;10876;49.038;10.608;2023-03-31T03:54:40;8.15;;;3.25;;
21430;SDS011;10876;49.038;10.608;2023-03-31T03:57:07;7.18;;;3.22;;
21430;SDS011;10876;49.038;10.608;2023-03-31T03:59:35;7.07;;;3.38;;
21430;SDS011;10876;49.038;10.608;2023-03-31T04:02:03;8.52;;;2.80;;
21430;SDS011;10876;49.038;10.608;2023-03-31T04:04:30;6.82;;;3.08;;
21430;SDS011;10876;49.038;10.608;2023-03-31T04:06:57;6.90;;;2.75;;
21430;SDS011;10876;49.038;10.608;2023-03-31T04:09:24;5.35;;;3.13;;
21430;SDS011;10876;49.038;10.608;2023-03-31T04:11:51;11.50;;;4.07;;
21430;SDS011;10876;49.038;10.608;2023-03-31T04:14:18;5.57;;;3.30;;
21430;SDS011;10876;49.038;10.608;2023-03-31T04:16:45;4.57;;;2.88;;
21430;SDS011;10876;49.038;10.608;2023-03-31T04:19:14;7.22;;;3.33;;
21430;SDS011;10876;49.038;10.608;2023-03-31T04:21:42;10.43;;;3.30;;
21430;SDS011;10876;49.038;10.608;2023-03-31T04:24:09;5.28;;;2.80;;
21430;SDS011;10876;49.038;10.608;2023-03-31T04:26:45;6.78;;;3.28;;
21430;SDS011;10876;49.038;10.608;2023-03-31T04:29:15;6.90;;;3.40;;
21430;SDS011;10876;49.038;10.608;2023-03-31T04:31:44;8.32;;;3.25;;
21430;SDS011;10876;49.038;10.608;2023-03-31T04:34:12;5.93;;;3.20;;
21430;SDS011;10876;49.038;10.608;2023-03-31T04:36:41;6.18;;;3.00;;
21430;SDS011;10876;49.038;10.608;2023-03-31T04:39:11;7.80;;;2.60;;
21430;SDS011;10876;49.038;10.608;2023-03-31T04:41:39;5.53;;;3.08;;
21430;SDS011;10876;49.038;10.608;2023-03-31T04:44:06;6.15;;;2.85;;
21430;SDS011;10876;49.038;10.608;2023-03-31T04:46:33;6.45;;;2.92;;
21430;SDS011;10876;49.038;10.608;2023-03-31T04:49:01;7.68;;;2.95;;
21430;SDS011;10876;49.038;10.608;2023-03-31T04:51:31;4.95;;;2.97;;
21430;SDS011;10876;49.038;10.608;2023-03-31T04:53:58;5.40;;;2.85;;
21430;SDS011;10876;49.038;10.608;2023-03-31T04:56:25;8.93;;;3.20;;
21430;SDS011;10876;49.038;10.608;2023-03-31T04:58:52;7.93;;;3.42;;
21430;SDS011;10876;49.038;10.608;2023-03-31T05:01:19;12.82;;;3.67;;
21430;SDS011;10876;49.038;10.608;2023-03-31T05:03:46;9.25;;;4.25;;
21430;SDS011;10876;49.038;10.608;2023-03-31T05:06:14;8.30;;;4.90;;
21430;SDS011;10876;49.038;10.608;2023-03-31T05:08:44;11.90;;;4.50;;
21430;SDS011;10876;49.038;10.608;2023-03-31T05:11:10;10.43;;;4.40;;
21430;SDS011;10876;49.038;10.608;2023-03-31T05:13:37;9.23;;;4.63;;
21430;SDS011;10876;49.038;10.608;2023-03-31T05:16:05;9.45;;;4.47;;
21430;SDS011;10876;49.038;10.608;2023-03-31T05:18:33;10.23;;;4.88;;
21430;SDS011;10876;49.038;10.608;2023-03-31T05:21:07;8.60;;;4.65;;
21430;SDS011;10876;49.038;10.608;2023-03-31T05:23:36;9.18;;;5.03;;
21430;SDS011;10876;49.038;10.608;2023-03-31T05:26:04;13.88;;;4.57;;
21430;SDS011;10876;49.038;10.608;2023-03-31T05:28:32;10.50;;;5.18;;
21430;SDS011;10876;49.038;10.608;2023-03-31T05:31:00;9.38;;;5.32;;
21430;SDS011;10876;49.038;10.608;2023-03-31T05:33:28;8.88;;;5.45;;
21430;SDS011;10876;49.038;10.608;2023-03-31T05:35:55;13.00;;;5.43;;
21430;SDS011;10876;49.038;10.608;2023-03-31T05:38:24;13.70;;;5.20;;
21430;SDS011;10876;49.038;10.608;2023-03-31T05:40:53;11.82;;;5.80;;
21430;SDS011;10876;49.038;10.608;2023-03-31T05:43:22;9.65;;;5.20;;
21430;SDS011;10876;49.038;10.608;2023-03-31T05:45:49;12.02;;;5.10;;
21430;SDS011;10876;49.038;10.608;2023-03-31T05:48:16;8.77;;;5.53;;
21430;SDS011;10876;49.038;10.608;2023-03-31T05:50:42;12.20;;;5.38;;
21430;SDS011;10876;49.038;10.608;2023-03-31T05:53:10;11.10;;;5.18;;
21430;SDS011;10876;49.038;10.608;2023-03-31T05:55:37;11.80;;;5.50;;
21430;SDS011;10876;49.038;10.608;2023-03-31T05:58:04;12.40;;;5.78;;
21430;SDS011;10876;49.038;10.608;2023-03-31T06:00:34;10.73;;;5.95;;
21430;SDS011;10876;49.038;10.608;2023-03-31T06:03:02;10.38;;;5.65;;
21430;SDS011;10876;49.038;10.608;2023-03-31T06:05:32;9.50;;;5.85;;
21430;SDS011;10876;49.038;10.608;2023-03-31T06:07:59;11.55;;;5.82;;
21430;SDS011;10876;49.038;10.608;2023-03-31T06:10:26;12.88;;;5.70;;
21430;SDS011;10876;49.038;10.608;2023-03-31T06:12:53;10.93;;;5.78;;
21430;SDS011;10876;49.038;10.608;2023-03-31T06:15:20;14.00;;;5.85;;
21430;SDS011;10876;49.038;10.608;2023-03-31T06:17:49;14.68;;;6.22;;
21430;SDS011;10876;49.038;10.608;2023-03-31T06:20:16;14.27;;;6.18;;
21430;SDS011;10876;49.038;10.608;2023-03-31T06:22:43;9.68;;;5.65;;
21430;SDS011;10876;49.038;10.608;2023-03-31T06:25:10;9.15;;;5.95;;
21430;SDS011;10876;49.038;10.608;2023-03-31T06:27:37;12.60;;;5.75;;
21430;SDS011;10876;49.038;10.608;2023-03-31T06:30:20;11.75;;;7.00;;
21430;SDS011;10876;49.038;10.608;2023-03-31T06:33:05;12.25;;;5.93;;
21430;SDS011;10876;49.038;10.608;2023-03-31T06:35:32;11.07;;;5.82;;
21430;SDS011;10876;49.038;10.608;2023-03-31T06:38:03;10.85;;;5.93;;
21430;SDS011;10876;49.038;10.608;2023-03-31T06:40:30;7.78;;;5.38;;
21430;SDS011;10876;49.038;10.608;2023-03-31T06:42:58;14.05;;;6.20;;
21430;SDS011;10876;49.038;10.608;2023-03-31T06:45:25;12.20;;;6.00;;
21430;SDS011;10876;49.038;10.608;2023-03-31T06:47:52;10.32;;;5.43;;
21430;SDS011;10876;49.038;10.608;2023-03-31T06:50:20;11.30;;;6.53;;
21430;SDS011;10876;49.038;10.608;2023-03-31T06:52:47;13.98;;;6.68;;
21430;SDS011;10876;49.038;10.608;2023-03-31T06:55:16;12.15;;;6.47;;
21430;SDS011;10876;49.038;10.608;2023-03-31T06:57:44;9.65;;;5.45;;
21430;SDS011;10876;49.038;10.608;2023-03-31T07:00:11;12.18;;;6.30;;
21430;SDS011;10876;49.038;10.608;2023-03-31T07:02:42;13.48;;;6.55;;
21430;SDS011;10876;49.038;10.608;2023-03-31T07:05:09;11.27;;;5.90;;
21430;SDS011;10876;49.038;10.608;2023-03-31T07:07:37;8.68;;;5.72;;
21430;SDS011;10876;49.038;10.608;2023-03-31T07:10:08;9.07;;;5.63;;
21430;SDS011;10876;49.038;10.608;2023-03-31T07:12:35;13.60;;;5.60;;
21430;SDS011;10876;49.038;10.608;2023-03-31T07:15:03;11.80;;;6.60;;
21430;SDS011;10876;49.038;10.608;2023-03-31T07:17:30;11.82;;;6.82;;
21430;SDS011;10876;49.038;10.608;2023-03-31T07:19:58;11.88;;;6.10;;
21430;SDS011;10876;49.038;10.608;2023-03-31T07:22:24;14.25;;;6.90;;
21430;SDS011;10876;49.038;10.608;2023-03-31T07:24:53;9.95;;;5.70;;
21430;SDS011;10876;49.038;10.608;2023-03-31T07:27:20;15.32;;;6.90;;
21430;SDS011;10876;49.038;10.608;2023-03-31T07:29:47;14.05;;;7.00;;
21430;SDS011;10876;49.038;10.608;2023-03-31T07:32:15;12.32;;;6.70;;
21430;SDS011;10876;49.038;10.608;2023-03-31T07:34:43;12.80;;;6.78;;
21430;SDS011;10876;49.038;10.608;2023-03-31T07:37:10;14.38;;;6.63;;
21430;SDS011;10876;49.038;10.608;2023-03-31T07:39:37;12.48;;;6.80;;
21430;SDS011;10876;49.038;10.608;2023-03-31T07:42:06;12.98;;;6.80;;
21430;SDS011;10876;49.038;10.608;2023-03-31T07:44:33;11.90;;;6.80;;
21430;SDS011;10876;49.038;10.608;2023-03-31T07:47:03;14.00;;;6.90;;
21430;SDS011;10876;49.038;10.608;2023-03-31T07:49:32;21.75;;;8.55;;
21430;SDS011;10876;49.038;10.608;2023-03-31T07:52:01;16.00;;;7.75;;
21430;SDS011;10876;49.038;10.608;2023-03-31T07:54:37;15.43;;;8.27;;
21430;SDS011;10876;49.038;10.608;2023-03-31T07:57:06;20.30;;;8.82;;
21430;SDS011;10876;49.038;10.608;2023-03-31T07:59:34;18.48;;;9.45;;
21430;SDS011;10876;49.038;10.608;2023-03-31T08:02:01;18.48;;;8.88;;
21430;SDS011;10876;49.038;10.608;2023-03-31T08:04:28;16.20;;;9.20;;
21430;SDS011;10876;49.038;10.608;2023-03-31T08:06:55;13.13;;;7.43;;
21430;SDS011;10876;49.038;10.608;2023-03-31T08:09:22;13.82;;;8.00;;
21430;SDS011;10876;49.038;10.608;2023-03-31T08:11:49;12.25;;;7.40;;
21430;SDS011;10876;49.038;10.608;2023-03-31T08:14:17;11.68;;;5.78;;
21430;SDS011;10876;49.038;10.608;2023-03-31T08:16:44;13.38;;;5.70;;
21430;SDS011;10876;49.038;10.608;2023-03-31T08:19:11;8.77;;;4.82;;
21430;SDS011;10876;49.038;10.608;2023-03-31T08:21:38;9.07;;;4.15;;
21430;SDS011;10876;49.038;10.608;2023-03-31T08:24:05;8.23;;;4.70;;
21430;SDS011;10876;49.038;10.608;2023-03-31T08:26:32;9.60;;;4.78;;
21430;SDS011;10876;49.038;10.608;2023-03-31T08:28:59;7.93;;;4.80;;
21430;SDS011;10876;49.038;10.608;2023-03-31T08:31:29;10.38;;;4.85;;
21430;SDS011;10876;49.038;10.608;2023-03-31T08:33:56;9.18;;;4.93;;
21430;SDS011;10876;49.038;10.608;2023-03-31T08:36:24;8.52;;;4.88;;
21430;SDS011;10876;49.038;10.608;2023-03-31T08:38:51;9.15;;;5.15;;
21430;SDS011;10876;49.038;10.608;2023-03-31T08:41:23;6.97;;;4.00;;
21430;SDS011;10876;49.038;10.608;2023-03-31T08:43:58;5.45;;;3.55;;
21430;SDS011;10876;49.038;10.608;2023-03-31T08:46:28;6.53;;;3.95;;
21430;SDS011;10876;49.038;10.608;2023-03-31T08:48:59;6.03;;;3.40;;
21430;SDS011;10876;49.038;10.608;2023-03-31T08:51:29;4.07;;;2.90;;
21430;SDS011;10876;49.038;10.608;2023-03-31T08:54:01;5.90;;;2.97;;
21430;SDS011;10876;49.038;10.608;2023-03-31T08:56:32;5.45;;;2.50;;
21430;SDS011;10876;49.038;10.608;2023-03-31T08:59:03;3.05;;;2.20;;
21430;SDS011;10876;49.038;10.608;2023-03-31T09:01:35;3.28;;;2.00;;
21430;SDS011;10876;49.038;10.608;2023-03-31T09:04:11;2.15;;;1.63;;
21430;SDS011;10876;49.038;10.608;2023-03-31T09:06:47;4.13;;;1.73;;
21430;SDS011;10876;49.038;10.608;2023-03-31T09:09:23;1.80;;;1.35;;
21430;SDS011;10876;49.038;10.608;2023-03-31T09:11:57;2.28;;;1.52;;
21430;SDS011;10876;49.038;10.608;2023-03-31T09:14:32;3.22;;;1.70;;
21430;SDS011;10876;49.038;10.608;2023-03-31T09:17:09;2.55;;;1.52;;
21430;SDS011;10876;49.038;10.608;2023-03-31T09:19:44;1.23;;;1.13;;
21430;SDS011;10876;49.038;10.608;2023-03-31T09:22:18;1.85;;;1.25;;
21430;SDS011;10876;49.038;10.608;2023-03-31T09:24:51;2.78;;;1.38;;
21430;SDS011;10876;49.038;10.608;2023-03-31T09:27:24;3.47;;;1.45;;
21430;SDS011;10876;49.038;10.608;2023-03-31T09:29:55;3.53;;;1.40;;
21430;SDS011;10876;49.038;10.608;2023-03-31T09:32:28;5.18;;;2.90;;
21430;SDS011;10876;49.038;10.608;2023-03-31T09:34:58;3.95;;;1.55;;
21430;SDS011;10876;49.038;10.608;2023-03-31T09:37:29;10.93;;;5.22;;
21430;SDS011;10876;49.038;10.608;2023-03-31T09:39:58;2.80;;;1.13;;
21430;SDS011;10876;49.038;10.608;2023-03-31T09:42:31;4.18;;;1.58;;
21430;SDS011;10876;49.038;10.608;2023-03-31T09:44:59;3.35;;;1.70;;
21430;SDS011;10876;49.038;10.608;2023-03-31T09:47:31;6.25;;;3.03;;
21430;SDS011;10876;49.038;10.608;2023-03-31T09:50:03;5.03;;;2.10;;
21430;SDS011;10876;49.038;10.608;2023-03-31T09:52:32;4.05;;;1.33;;
21430;SDS011;10876;49.038;10.608;2023-03-31T09:55:05;4.30;;;1.85;;
21430;SDS011;10876;49.038;10.608;2023-03-31T09:57:41;4.63;;;1.73;;
21430;SDS011;10876;49.038;10.608;2023-03-31T10:00:13;3.92;;;1.88;;
21430;SDS011;10876;49.038;10.608;2023-03-31T10:02:43;7.80;;;2.88;;
21430;SDS011;10876;49.038;10.608;2023-03-31T10:05:21;8.30;;;3.22;;
21430;SDS011;10876;49.038;10.608;2023-03-31T10:10:46;11.13;;;2.85;;
21430;SDS011;10876;49.038;10.608;2023-03-31T10:13:15;5.22;;;1.70;;
21430;SDS011;10876;49.038;10.608;2023-03-31T10:15:44;12.48;;;4.28;;
21430;SDS011;10876;49.038;10.608;2023-03-31T10:18:14;3.03;;;1.48;;
21430;SDS011;10876;49.038;10.608;2023-03-31T10:20:43;3.45;;;1.30;;
21430;SDS011;10876;49.038;10.608;2023-03-31T10:23:15;4.38;;;1.50;;
21430;SDS011;10876;49.038;10.608;2023-03-31T10:25:43;5.70;;;1.55;;
21430;SDS011;10876;49.038;10.608;2023-03-31T10:28:12;5.15;;;1.55;;
21430;SDS011;10876;49.038;10.608;2023-03-31T10:30:45;4.40;;;1.45;;
21430;SDS011;10876;49.038;10.608;2023-03-31T10:33:18;2.22;;;1.50;;
21430;SDS011;10876;49.038;10.608;2023-03-31T10:35:49;2.90;;;1.10;;
21430;SDS011;10876;49.038;10.608;2023-03-31T10:38:22;3.30;;;0.93;;
21430;SDS011;10876;49.038;10.608;2023-03-31T10:40:53;2.78;;;1.02;;
21430;SDS011;10876;49.038;10.608;2023-03-31T10:43:24;2.50;;;1.15;;
21430;SDS011;10876;49.038;10.608;2023-03-31T10:45:53;1.40;;;0.90;;
21430;SDS011;10876;49.038;10.608;2023-03-31T10:48:28;1.55;;;0.80;;
21430;SDS011;10876;49.038;10.608;2023-03-31T10:50:57;3.20;;;1.00;;
21430;SDS011;10876;49.038;10.608;2023-03-31T10:53:25;1.98;;;1.10;;
21430;SDS011;10876;49.038;10.608;2023-03-31T10:55:58;3.22;;;0.80;;
21430;SDS011;10876;49.038;10.608;2023-03-31T11:01:33;3.20;;;1.00;;
21430;SDS011;10876;49.038;10.608;2023-03-31T11:04:17;2.22;;;0.80;;
21430;SDS011;10876;49.038;10.608;2023-03-31T11:06:56;1.33;;;0.63;;
21430;SDS011;10876;49.038;10.608;2023-03-31T11:09:38;4.35;;;0.90;;
21430;SDS011;10876;49.038;10.608;2023-03-31T11:12:16;1.42;;;0.80;;
21430;SDS011;10876;49.038;10.608;2023-03-31T11:17:46;4.28;;;0.95;;
21430;SDS011;10876;49.038;10.608;2023-03-31T11:20:26;3.65;;;0.88;;
21430;SDS011;10876;49.038;10.608;2023-03-31T11:23:01;2.47;;;0.77;;
21430;SDS011;10876;49.038;10.608;2023-03-31T11:25:37;3.35;;;0.80;;
21430;SDS011;10876;49.038;10.608;2023-03-31T11:28:19;2.95;;;0.88;;
21430;SDS011;10876;49.038;10.608;2023-03-31T11:30:54;3.20;;;1.00;;
21430;SDS011;10876;49.038;10.608;2023-03-31T11:33:33;3.35;;;0.90;;
21430;SDS011;10876;49.038;10.608;2023-03-31T11:36:29;2.80;;;0.80;;
21430;SDS011;10876;49.038;10.608;2023-03-31T11:39:09;2.78;;;0.70;;
21430;SDS011;10876;49.038;10.608;2023-03-31T11:41:45;3.30;;;0.80;;
21430;SDS011;10876;49.038;10.608;2023-03-31T11:44:16;3.63;;;0.90;;
21430;SDS011;10876;49.038;10.608;2023-03-31T11:46:45;4.00;;;1.20;;
21430;SDS011;10876;49.038;10.608;2023-03-31T11:49:18;3.85;;;0.90;;
21430;SDS011;10876;49.038;10.608;2023-03-31T11:51:50;4.07;;;0.90;;
21430;SDS011;10876;49.038;10.608;2023-03-31T11:54:23;2.72;;;0.93;;
21430;SDS011;10876;49.038;10.608;2023-03-31T11:56:54;3.10;;;1.35;;
21430;SDS011;10876;49.038;10.608;2023-03-31T11:59:22;4.15;;;1.10;;
21430;SDS011;10876;49.038;10.608;2023-03-31T12:01:56;5.60;;;0.70;;
21430;SDS011;10876;49.038;10.608;2023-03-31T12:04:30;4.18;;;1.08;;
21430;SDS011;10876;49.038;10.608;2023-03-31T12:07:07;2.88;;;0.70;;
21430;SDS011;10876;49.038;10.608;2023-03-31T12:09:49;3.47;;;0.73;;
21430;SDS011;10876;49.038;10.608;2023-03-31T12:12:21;3.63;;;0.70;;
21430;SDS011;10876;49.038;10.608;2023-03-31T12:14:54;4.75;;;1.20;;
21430;SDS011;10876;49.038;10.608;2023-03-31T12:17:26;4.28;;;1.00;;
21430;SDS011;10876;49.038;10.608;2023-03-31T12:19:53;2.08;;;0.60;;
21430;SDS011;10876;49.038;10.608;2023-03-31T12:22:25;4.68;;;1.23;;
21430;SDS011;10876;49.038;10.608;2023-03-31T12:24:55;3.75;;;1.15;;
21430;SDS011;10876;49.038;10.608;2023-03-31T12:27:23;3.50;;;0.90;;
21430;SDS011;10876;49.038;10.608;2023-03-31T12:29:54;5.82;;;1.63;;
21430;SDS011;10876;49.038;10.608;2023-03-31T12:32:24;2.00;;;0.70;;
21430;SDS011;10876;49.038;10.608;2023-03-31T12:34:54;4.05;;;0.47;;
21430;SDS011;10876;49.038;10.608;2023-03-31T12:37:38;1.67;;;0.40;;
21430;SDS011;10876;49.038;10.608;2023-03-31T12:40:28;1.83;;;0.63;;
21430;SDS011;10876;49.038;10.608;2023-03-31T12:43:10;0.55;;;0.40;;
21430;SDS011;10876;49.038;10.608;2023-03-31T12:45:51;0.60;;;0.40;;
21430;SDS011;10876;49.038;10.608;2023-03-31T12:51:37;9.50;;;4.13;;
21430;SDS011;10876;49.038;10.608;2023-03-31T12:54:24;5.65;;;2.13;;
21430;SDS011;10876;49.038;10.608;2023-03-31T12:59:46;4.82;;;2.20;;
21430;SDS011;10876;49.038;10.608;2023-03-31T13:02:41;7.65;;;3.42;;
21430;SDS011;10876;49.038;10.608;2023-03-31T13:08:11;5.93;;;3.13;;
21430;SDS011;10876;49.038;10.608;2023-03-31T13:11:33;2.97;;;1.17;;
21430;SDS011;10876;49.038;10.608;2023-03-31T13:14:03;3.78;;;1.42;;
21430;SDS011;10876;49.038;10.608;2023-03-31T13:16:33;1.33;;;0.70;;
21430;SDS011;10876;49.038;10.608;2023-03-31T13:19:01;1.67;;;1.02;;
21430;SDS011;10876;49.038;10.608;2023-03-31T13:21:28;1.75;;;0.60;;
21430;SDS011;10876;49.038;10.608;2023-03-31T13:23:58;0.38;;;0.38;;
21430;SDS011;10876;49.038;10.608;2023-03-31T13:26:35;0.40;;;0.40;;
21430;SDS011;10876;49.038;10.608;2023-03-31T13:29:17;1.67;;;0.55;;
21430;SDS011;10876;49.038;10.608;2023-03-31T13:34:43;1.08;;;0.50;;
21430;SDS011;10876;49.038;10.608;2023-03-31T13:37:18;1.52;;;0.43;;
21430;SDS011;10876;49.038;10.608;2023-03-31T13:46:12;0.93;;;0.50;;
21430;SDS011;10876;49.038;10.608;2023-03-31T13:48:57;2.30;;;0.70;;
21430;SDS011;10876;49.038;10.608;2023-03-31T13:51:42;1.90;;;0.70;;
21430;SDS011;10876;49.038;10.608;2023-03-31T13:54:36;0.55;;;0.50;;
21430;SDS011;10876;49.038;10.608;2023-03-31T13:57:47;1.73;;;0.50;;
21430;SDS011;10876;49.038;10.608;2023-03-31T14:00:46;2.85;;;0.60;;
21430;SDS011;10876;49.038;10.608;2023-03-31T14:03:26;2.50;;;0.90;;
21430;SDS011;10876;49.038;10.608;2023-03-31T14:06:02;1.95;;;0.40;;
21430;SDS011;10876;49.038;10.608;2023-03-31T14:08:35;1.90;;;0.63;;
21430;SDS011;10876;49.038;10.608;2023-03-31T14:11:15;0.55;;;0.55;;
21430;SDS011;10876;49.038;10.608;2023-03-31T14:13:57;1.17;;;0.52;;
21430;SDS011;10876;49.038;10.608;2023-03-31T14:16:25;3.72;;;0.80;;
21430;SDS011;10876;49.038;10.608;2023-03-31T14:18:55;2.35;;;0.75;;
21430;SDS011;10876;49.038;10.608;2023-03-31T14:21:32;0.88;;;0.50;;
21430;SDS011;10876;49.038;10.608;2023-03-31T14:24:07;3.80;;;0.60;;
21430;SDS011;10876;49.038;10.608;2023-03-31T14:26:49;1.98;;;0.93;;
21430;SDS011;10876;49.038;10.608;2023-03-31T14:29:26;4.30;;;0.93;;
21430;SDS011;10876;49.038;10.608;2023-03-31T14:32:02;3.25;;;1.52;;
21430;SDS011;10876;49.038;10.608;2023-03-31T14:34:41;2.35;;;1.00;;
21430;SDS011;10876;49.038;10.608;2023-03-31T14:37:18;4.97;;;1.88;;
21430;SDS011;10876;49.038;10.608;2023-03-31T14:39:47;5.03;;;1.50;;
21430;SDS011;10876;49.038;10.608;2023-03-31T14:42:18;1.77;;;0.65;;
21430;SDS011;10876;49.038;10.608;2023-03-31T14:44:47;5.30;;;1.40;;
21430;SDS011;10876;49.038;10.608;2023-03-31T14:47:14;5.20;;;1.08;;
21430;SDS011;10876;49.038;10.608;2023-03-31T14:49:46;3.00;;;0.80;;
21430;SDS011;10876;49.038;10.608;2023-03-31T14:52:14;1.23;;;0.70;;
21430;SDS011;10876;49.038;10.608;2023-03-31T14:54:44;3.13;;;1.00;;
21430;SDS011;10876;49.038;10.608;2023-03-31T14:57:12;1.02;;;0.50;;
21430;SDS011;10876;49.038;10.608;2023-03-31T14:59:45;1.73;;;0.57;;
21430;SDS011;10876;49.038;10.608;2023-03-31T15:02:19;2.95;;;0.50;;
21430;SDS011;10876;49.038;10.608;2023-03-31T15:04:56;0.65;;;0.47;;
21430;SDS011;10876;49.038;10.608;2023-03-31T15:07:24;4.28;;;1.30;;
21430;SDS011;10876;49.038;10.608;2023-03-31T15:09:53;3.10;;;1.30;;
21430;SDS011;10876;49.038;10.608;2023-03-31T15:12:20;5.00;;;1.17;;
21430;SDS011;10876;49.038;10.608;2023-03-31T15:14:48;4.05;;;0.80;;
21430;SDS011;10876;49.038;10.608;2023-03-31T15:17:18;2.83;;;0.80;;
21430;SDS011;10876;49.038;10.608;2023-03-31T15:19:50;4.53;;;0.70;;
21430;SDS011;10876;49.038;10.608;2023-03-31T15:22:21;2.83;;;0.80;;
21430;SDS011;10876;49.038;10.608;2023-03-31T15:24:50;2.67;;;0.70;;
21430;SDS011;10876;49.038;10.608;2023-03-31T15:27:23;1.38;;;0.50;;
21430;SDS011;10876;49.038;10.608;2023-03-31T15:29:59;0.77;;;0.32;;
21430;SDS011;10876;49.038;10.608;2023-03-31T15:32:28;2.60;;;0.75;;
21430;SDS011;10876;49.038;10.608;2023-03-31T15:34:57;1.95;;;0.55;;
21430;SDS011;10876;49.038;10.608;2023-03-31T15:37:26;2.60;;;0.68;;
21430;SDS011;10876;49.038;10.608;2023-03-31T15:39:57;2.42;;;0.75;;
21430;SDS011;10876;49.038;10.608;2023-03-31T15:42:26;1.23;;;0.77;;
21430;SDS011;10876;49.038;10.608;2023-03-31T15:44:54;2.53;;;0.98;;
21430;SDS011;10876;49.038;10.608;2023-03-31T15:47:47;2.13;;;0.50;;
21430;SDS011;10876;49.038;10.608;2023-03-31T15:50:19;1.67;;;0.50;;
21430;SDS011;10876;49.038;10.608;2023-03-31T15:52:49;1.13;;;0.50;;
21430;SDS011;10876;49.038;10.608;2023-03-31T15:55:24;1.00;;;0.70;;
21430;SDS011;10876;49.038;10.608;2023-03-31T15:57:54;0.70;;;0.50;;
21430;SDS011;10876;49.038;10.608;2023-03-31T16:03:17;0.80;;;0.47;;
21430;SDS011;10876;49.038;10.608;2023-03-31T16:05:50;1.45;;;0.70;;
21430;SDS011;10876;49.038;10.608;2023-03-31T16:08:30;1.13;;;0.65;;
21430;SDS011;10876;49.038;10.608;2023-03-31T16:11:08;0.90;;;0.70;;
21430;SDS011;10876;49.038;10.608;2023-03-31T16:13:39;2.35;;;0.50;;
21430;SDS011;10876;49.038;10.608;2023-03-31T16:16:12;0.45;;;0.40;;
21430;SDS011;10876;49.038;10.608;2023-03-31T16:18:42;1.75;;;0.68;;
21430;SDS011;10876;49.038;10.608;2023-03-31T16:21:12;1.38;;;0.45;;
21430;SDS011;10876;49.038;10.608;2023-03-31T16:23:42;0.65;;;0.40;;